KCNW/CNW METAR and TAF weather

Enter ICAO airport designator
Station Type Date Time Source
KCNW METAR 2024/02/19 00:55 UTC NOAA

KCNW 190055Z 00000KT 10SM SKC 08/M03 A3016


Station Type Date Time Source
KCNW Decoded METAR 2024/02/19 00:55 UTC NOAA

Station name not available
Feb 18, 2024 - 07:55 PM EST / 2024.02.19 0055 UTC
Wind: Calm:0
Visibility: 10 mile(s):0
Sky conditions: clear
Temperature: 46 F (8 C)
Dew Point: 26 F (-3 C)
Relative Humidity: 45%
Pressure (altimeter): 30.16 in. Hg (1021 hPa)
ob: KCNW 190055Z 00000KT 10SM SKC 08/M03 A3016
cycle: 1

Station Type Date Time Source
KCNW TAF UTC NOAA

Error!

Example: see airport list